createdAt,value
2019-01-10T00:03:25.329Z,95814.55
2019-01-10T00:05:52.024Z,95816.37
2019-01-10T00:08:18.632Z,95822.47
2019-01-10T00:10:45.240Z,95820.15
2019-01-10T00:13:11.858Z,95823.29
2019-01-10T00:15:38.668Z,95822.47
2019-01-10T00:18:05.382Z,95826.75
2019-01-10T00:20:31.993Z,95825.75
2019-01-10T00:22:58.613Z,95816.83
2019-01-10T00:25:25.234Z,95821.29
2019-01-10T00:27:51.936Z,95821.79
2019-01-10T00:30:18.562Z,95823.29
2019-01-10T00:32:45.241Z,95825.93
2019-01-10T00:35:11.946Z,95821.47
2019-01-10T00:37:38.541Z,95824.80
2019-01-10T00:40:06.055Z,95834.03
2019-01-10T00:42:32.660Z,95830.39
2019-01-10T00:44:59.274Z,95828.25
2019-01-10T00:47:25.879Z,95832.21
2019-01-10T00:49:52.491Z,95836.49
2019-01-10T00:52:19.095Z,95834.17
2019-01-10T00:54:45.703Z,95840.45
2019-01-10T00:57:12.329Z,95842.59
2019-01-10T00:59:38.929Z,95842.27
2019-01-10T01:02:05.557Z,95843.41
2019-01-10T01:04:32.261Z,95845.05
2019-01-10T01:06:58.999Z,95850.52
2019-01-10T01:09:25.639Z,95853.80
2019-01-10T01:11:52.521Z,95855.62
2019-01-10T01:14:19.226Z,95851.16
2019-01-10T01:16:45.922Z,95855.94
2019-01-10T01:19:12.628Z,95853.80
2019-01-10T01:21:39.230Z,95862.54
2019-01-10T01:24:05.842Z,95863.04
2019-01-10T01:26:32.442Z,95871.78
2019-01-10T01:28:59.036Z,95867.50
2019-01-10T01:31:25.652Z,95866.68
2019-01-10T01:33:52.457Z,95872.14
2019-01-10T01:36:19.057Z,95865.04
2019-01-10T01:38:45.658Z,95870.32
2019-01-10T01:41:12.249Z,95873.96
2019-01-10T01:43:38.849Z,95877.42
2019-01-10T01:46:07.665Z,95883.38
2019-01-10T01:48:33.959Z,95883.38
2019-01-10T01:51:00.574Z,95882.06
2019-01-10T01:53:27.288Z,95884.70
2019-01-10T01:55:53.896Z,95885.20
2019-01-10T01:58:20.518Z,95886.66
2019-01-10T02:00:47.114Z,95897.23
2019-01-10T02:03:13.723Z,95888.16
2019-01-10T02:05:40.327Z,95898.41
2019-01-10T02:08:06.930Z,95898.41
2019-01-10T02:10:33.654Z,95906.14
2019-01-10T02:13:00.246Z,95906.97
2019-01-10T02:15:27.032Z,95908.61
2019-01-10T02:17:53.648Z,95915.53
2019-01-10T02:20:20.226Z,95913.06
2019-01-10T02:22:46.832Z,95915.86
2019-01-10T02:25:13.428Z,95918.81
2019-01-10T02:27:40.050Z,95916.50
2019-01-10T02:30:08.207Z,95920.45
2019-01-10T02:32:34.807Z,95915.81
2019-01-10T02:35:01.507Z,95911.03
2019-01-10T02:37:28.185Z,95915.64
2019-01-10T02:39:54.784Z,95907.53
2019-01-10T02:42:21.383Z,95908.38
2019-01-10T02:44:47.983Z,95906.56
2019-01-10T02:47:14.583Z,95908.42
2019-01-10T02:49:41.203Z,95904.14
2019-01-10T02:52:07.816Z,95915.70
2019-01-10T02:54:34.523Z,95922.98
2019-01-10T02:57:01.127Z,95917.39
2019-01-10T02:59:27.720Z,95922.67
2019-01-10T03:01:54.424Z,95908.47
2019-01-10T03:04:21.026Z,95918.70
2019-01-10T03:06:47.640Z,95919.70
2019-01-10T03:09:14.238Z,95918.39
2019-01-10T03:11:40.928Z,95916.25
2019-01-10T03:14:07.522Z,95920.53
2019-01-10T03:16:34.246Z,95926.02
2019-01-10T03:19:00.841Z,95914.64
2019-01-10T03:21:27.442Z,95904.25
2019-01-10T03:23:54.037Z,95916.14
2019-01-10T03:26:20.626Z,95914.50
2019-01-10T03:28:47.316Z,95915.50
2019-01-10T03:31:13.907Z,95913.67
2019-01-10T03:33:40.614Z,95917.81
2019-01-10T03:36:07.305Z,95918.81
2019-01-10T03:38:33.933Z,95918.00
2019-01-10T03:41:00.623Z,95919.81
2019-01-10T03:43:27.264Z,95921.95
2019-01-10T03:45:53.957Z,95917.50
2019-01-10T03:48:20.550Z,95920.31
2019-01-10T03:50:47.166Z,95915.17
2019-01-10T03:53:13.785Z,95913.03
2019-01-10T03:55:40.498Z,95922.78
2019-01-10T03:58:07.109Z,95917.81
2019-01-10T04:00:33.696Z,95925.56
2019-01-10T04:03:00.311Z,95922.59
2019-01-10T04:05:26.918Z,95920.45
2019-01-10T04:07:53.520Z,95925.42
2019-01-10T04:10:20.120Z,95924.09
2019-01-10T04:12:46.852Z,95928.38
2019-01-10T04:15:13.620Z,95930.70
2019-01-10T04:17:40.330Z,95932.34
2019-01-10T04:23:15.058Z,95940.44
2019-01-10T04:25:43.021Z,95936.66
2019-01-10T04:28:16.303Z,95932.52
2019-01-10T04:30:43.012Z,95941.27
2019-01-10T04:33:09.890Z,95939.13
2019-01-10T04:35:56.045Z,95944.08
2019-01-10T04:38:22.686Z,95945.91
2019-01-10T04:40:49.304Z,95943.27
2019-01-10T04:43:15.936Z,95953.47
2019-01-10T04:45:42.693Z,95948.69
2019-01-10T04:48:09.304Z,95952.33
2019-01-10T04:50:35.914Z,95953.47
2019-01-10T04:53:02.624Z,95956.11
2019-01-10T04:55:29.237Z,95960.39
2019-01-10T04:57:55.854Z,95965.00
2019-01-10T05:00:25.563Z,95967.95
2019-01-10T05:02:52.289Z,95970.92
2019-01-10T05:05:18.989Z,95975.38
2019-01-10T05:07:45.621Z,95972.42
2019-01-10T05:10:12.327Z,95969.63
2019-01-10T05:12:38.926Z,95982.66
2019-01-10T05:15:05.937Z,95974.42
2019-01-10T05:17:32.545Z,95979.70
2019-01-10T05:19:59.373Z,95977.56
2019-01-10T05:22:26.075Z,95981.52
2019-01-10T05:24:52.781Z,95987.62
2019-01-10T05:27:19.395Z,95982.84
2019-01-10T05:29:46.465Z,95981.02
2019-01-10T05:32:13.114Z,95986.44
2019-01-10T05:34:40.445Z,95990.73
2019-01-10T05:37:07.248Z,95986.23
2019-01-10T05:39:33.950Z,95985.13
2019-01-10T05:42:00.595Z,95985.45
2019-01-10T05:44:27.323Z,95992.55
2019-01-10T05:46:54.043Z,95995.69
2019-01-10T05:49:20.748Z,95998.00
2019-01-10T05:51:47.375Z,96000.64
2019-01-10T05:54:14.134Z,96000.97
2019-01-10T05:56:40.847Z,96004.11
2019-01-10T05:59:07.577Z,96004.61
2019-01-10T06:01:34.200Z,96007.69
2019-01-10T06:04:00.820Z,96010.91
2019-01-10T06:06:27.433Z,96005.16
2019-01-10T06:08:54.053Z,96009.69
2019-01-10T06:11:20.685Z,96019.77
2019-01-10T06:13:47.308Z,96019.48
2019-01-10T06:16:13.935Z,96022.34
2019-01-10T06:18:40.670Z,96020.13
2019-01-10T06:21:07.289Z,96028.27
2019-01-10T06:23:33.917Z,96030.77
2019-01-10T06:26:00.528Z,96036.61
2019-01-10T06:28:27.152Z,96042.08
2019-01-10T06:30:53.781Z,96039.75
2019-01-10T06:33:20.396Z,96047.03
2019-01-10T06:35:47.488Z,96055.61
2019-01-10T06:38:14.573Z,96059.19
2019-01-10T06:40:41.653Z,96053.90
2019-01-10T06:43:08.757Z,96054.61
2019-01-10T06:45:35.837Z,96060.50
2019-01-10T06:48:03.407Z,96062.15
2019-01-10T06:50:30.499Z,96056.86
2019-01-10T06:52:57.579Z,96069.08
2019-01-10T06:55:24.665Z,96076.36
2019-01-10T06:57:51.743Z,96077.50
2019-01-10T07:00:23.200Z,96078.64
2019-01-10T07:02:50.267Z,96081.78
2019-01-10T07:05:17.328Z,96079.79
2019-01-10T07:07:44.875Z,96082.34
2019-01-10T07:10:15.051Z,96082.92
2019-01-10T07:12:42.084Z,96086.81
2019-01-10T07:15:09.151Z,96089.81
2019-01-10T07:17:36.220Z,96094.24
2019-01-10T07:20:44.644Z,96094.24
2019-01-10T07:23:11.702Z,96092.09
2019-01-10T07:25:38.771Z,96099.56
2019-01-10T07:28:29.379Z,96101.20
2019-01-10T07:30:57.608Z,96106.03
2019-01-10T07:33:24.692Z,96100.92
2019-01-10T07:35:55.765Z,96103.06
2019-01-10T07:38:22.849Z,96106.84
2019-01-10T07:40:49.910Z,96110.31
2019-01-10T07:43:19.811Z,96114.09
2019-01-10T07:45:46.854Z,96112.95
2019-01-10T07:48:13.911Z,96117.06
2019-01-10T07:50:40.964Z,96115.75
2019-01-10T07:53:08.627Z,96123.35
2019-01-10T07:55:36.082Z,96124.35
2019-01-10T07:58:03.260Z,96122.03
2019-01-10T08:00:30.296Z,96132.61
2019-01-10T08:02:57.338Z,96133.92
2019-01-10T08:05:24.400Z,96134.89
2019-01-10T08:07:51.512Z,96138.18
2019-01-10T08:10:18.572Z,96137.86
2019-01-10T08:12:45.612Z,96144.47
2019-01-10T08:15:15.329Z,96144.11
2019-01-10T08:17:42.391Z,96150.22
2019-01-10T08:20:09.553Z,96152.98
2019-01-10T08:22:36.602Z,96156.27
2019-01-10T08:25:04.034Z,96161.38
2019-01-10T08:27:31.036Z,96161.23
2019-01-10T08:29:58.083Z,96162.88
2019-01-10T08:32:25.162Z,96159.23
2019-01-10T08:34:52.241Z,96167.96
2019-01-10T08:37:19.266Z,96164.81
2019-01-10T08:39:46.320Z,96166.78
2019-01-10T08:42:13.358Z,96174.36
2019-01-10T08:44:40.417Z,96172.48
2019-01-10T08:47:07.661Z,96179.41
2019-01-10T08:49:36.068Z,96177.09
2019-01-10T08:52:03.399Z,96176.27
2019-01-10T08:54:30.461Z,96181.87
2019-01-10T08:56:57.538Z,96188.13
2019-01-10T08:59:24.602Z,96190.89
2019-01-10T09:01:51.646Z,96189.03
2019-01-10T09:04:18.669Z,96184.67
2019-01-10T09:06:45.730Z,96181.53
2019-01-10T09:09:12.779Z,96195.58
2019-01-10T09:11:39.813Z,96193.58
2019-01-10T09:14:06.878Z,96197.05
2019-01-10T09:16:33.906Z,96196.72
2019-01-10T09:19:00.977Z,96201.20
2019-01-10T09:21:28.971Z,96207.77
2019-01-10T09:23:56.022Z,96207.73
2019-01-10T09:26:23.073Z,96209.20
2019-01-10T09:28:50.101Z,96200.27
2019-01-10T09:31:17.149Z,96206.70
2019-01-10T09:33:44.219Z,96215.46
2019-01-10T09:36:11.315Z,96214.53
2019-01-10T09:38:38.375Z,96217.96
2019-01-10T09:41:05.407Z,96215.63
2019-01-10T09:43:32.461Z,96214.72
2019-01-10T09:45:59.527Z,96215.08
2019-01-10T09:48:26.561Z,96219.33
2019-01-10T09:50:53.643Z,96223.45
2019-01-10T09:53:20.678Z,96225.14
2019-01-10T09:55:47.737Z,96224.48
2019-01-10T09:58:14.821Z,96228.36
2019-01-10T10:00:41.896Z,96229.73
2019-01-10T10:03:08.946Z,96232.66
2019-01-10T10:05:36.039Z,96230.84
2019-01-10T10:08:03.269Z,96233.48
2019-01-10T10:10:30.449Z,96236.13
2019-01-10T10:12:57.607Z,96235.81
2019-01-10T10:15:26.469Z,96233.34
2019-01-10T10:17:53.524Z,96232.80
2019-01-10T10:20:22.165Z,96236.09
2019-01-10T10:22:49.211Z,96242.03
2019-01-10T10:25:16.261Z,96240.70
2019-01-10T10:27:43.299Z,96238.92
2019-01-10T10:30:15.660Z,96236.73
2019-01-10T10:32:42.741Z,96241.64
2019-01-10T10:35:10.890Z,96245.11
2019-01-10T10:37:38.441Z,96242.92
2019-01-10T10:40:07.955Z,96247.68
2019-01-10T10:42:35.011Z,96246.31
2019-01-10T10:45:02.121Z,96246.31
2019-01-10T10:47:29.144Z,96250.14
2019-01-10T10:49:56.201Z,96244.17
2019-01-10T10:52:23.303Z,96250.47
2019-01-10T10:54:50.371Z,96251.15
2019-01-10T10:57:17.520Z,96251.47
2019-01-10T10:59:44.546Z,96251.11
2019-01-10T11:02:11.677Z,96252.58
2019-01-10T11:04:38.745Z,96255.83
2019-01-10T11:07:05.784Z,96250.03
2019-01-10T11:09:32.856Z,96259.52
2019-01-10T11:11:59.918Z,96256.33
2019-01-10T11:14:27.025Z,96250.24
2019-01-10T11:16:54.111Z,96255.65
2019-01-10T11:19:21.207Z,96255.78
2019-01-10T11:21:48.275Z,96260.22
2019-01-10T11:24:15.335Z,96251.91
2019-01-10T11:26:42.361Z,96259.81
2019-01-10T11:29:09.422Z,96265.36
2019-01-10T11:31:36.447Z,96257.31
2019-01-10T11:34:03.636Z,96255.22
2019-01-10T11:36:30.673Z,96256.04
2019-01-10T11:38:57.744Z,96264.63
2019-01-10T11:41:24.806Z,96259.19
2019-01-10T11:43:51.861Z,96251.24
2019-01-10T11:46:19.759Z,96257.87
2019-01-10T11:48:47.172Z,96252.38
2019-01-10T11:51:14.269Z,96253.53
2019-01-10T11:53:41.292Z,96249.69
2019-01-10T11:56:08.331Z,96258.00
2019-01-10T11:58:35.366Z,96256.41
2019-01-10T12:01:02.422Z,96256.20
2019-01-10T12:03:29.466Z,96249.27
2019-01-10T12:05:56.520Z,96264.19
2019-01-10T12:08:23.597Z,96263.91
2019-01-10T12:10:50.638Z,96263.59
2019-01-10T12:13:17.697Z,96263.91
2019-01-10T12:15:44.744Z,96259.13
2019-01-10T12:18:12.126Z,96263.88
2019-01-10T12:20:39.196Z,96267.84
2019-01-10T12:23:06.287Z,96267.70
2019-01-10T12:25:33.333Z,96260.44
2019-01-10T12:28:00.401Z,96264.92
2019-01-10T12:30:27.414Z,96268.07
2019-01-10T12:32:54.500Z,96269.07
2019-01-10T12:35:22.651Z,96271.54
2019-01-10T12:37:49.687Z,96266.64
2019-01-10T12:40:16.867Z,96267.64
2019-01-10T12:42:44.026Z,96272.94
2019-01-10T12:45:11.532Z,96267.89
2019-01-10T12:47:38.579Z,96270.72
2019-01-10T12:50:10.224Z,96269.72
2019-01-10T12:52:37.267Z,96277.66
2019-01-10T12:55:04.463Z,96274.83
2019-01-10T12:57:31.542Z,96281.45
2019-01-10T12:59:58.594Z,96276.48
2019-01-10T13:02:25.663Z,96282.37
2019-01-10T13:04:52.704Z,96274.38
2019-01-10T13:07:19.768Z,96280.05
2019-01-10T13:09:46.833Z,96287.03
2019-01-10T13:12:13.914Z,96286.56
2019-01-10T13:14:40.990Z,96277.59
2019-01-10T13:17:08.100Z,96292.23
2019-01-10T13:19:35.164Z,96293.56
2019-01-10T13:22:02.200Z,96291.91
2019-01-10T13:24:31.674Z,96294.56
2019-01-10T13:26:58.733Z,96298.67
2019-01-10T13:29:25.804Z,96294.42
2019-01-10T13:31:52.877Z,96298.56
2019-01-10T13:34:19.934Z,96295.42
2019-01-10T13:36:46.970Z,96298.89
2019-01-10T13:39:14.005Z,96302.39
2019-01-10T13:41:41.056Z,96299.38
2019-01-10T13:44:08.080Z,96305.34
2019-01-10T13:46:35.142Z,96306.20
2019-01-10T13:49:02.199Z,96313.36
2019-01-10T13:51:29.270Z,96314.19
2019-01-10T13:53:56.286Z,96318.73
2019-01-10T13:56:23.344Z,96318.78
2019-01-10T13:58:50.375Z,96324.97
2019-01-10T14:01:17.482Z,96319.69
2019-01-10T14:03:44.555Z,96322.08
2019-01-10T14:06:11.669Z,96337.48
2019-01-10T14:08:38.693Z,96331.79
2019-01-10T14:11:05.795Z,96327.72
2019-01-10T14:13:32.885Z,96336.20
2019-01-10T14:16:00.114Z,96340.44
2019-01-10T14:18:27.161Z,96345.84
2019-01-10T14:20:54.228Z,96342.55
2019-01-10T14:23:21.421Z,96342.00
2019-01-10T14:25:50.315Z,96348.33
2019-01-10T14:28:17.418Z,96349.03
2019-01-10T14:30:44.505Z,96353.86
2019-01-10T14:33:12.623Z,96348.80
2019-01-10T14:35:39.681Z,96356.59
2019-01-10T14:38:06.808Z,96356.13
2019-01-10T14:40:33.889Z,96356.80
2019-01-10T14:43:00.980Z,96360.61
2019-01-10T14:45:28.096Z,96364.76
2019-01-10T14:48:01.558Z,96355.17
2019-01-10T14:50:24.213Z,96367.79
2019-01-10T14:52:51.309Z,96368.79
2019-01-10T14:55:18.411Z,96366.08
2019-01-10T14:57:45.780Z,96373.52
2019-01-10T15:00:15.747Z,96380.14
2019-01-10T15:02:42.795Z,96384.53
2019-01-10T15:05:09.873Z,96383.92
2019-01-10T15:07:37.396Z,96391.83
2019-01-10T15:10:04.720Z,96391.80
2019-01-10T15:12:32.062Z,96393.02
2019-01-10T15:14:59.358Z,96394.59
2019-01-10T15:17:26.399Z,96399.93
2019-01-10T15:19:54.407Z,96410.04
2019-01-10T15:22:21.528Z,96417.52
2019-01-10T15:24:48.636Z,96413.91
2019-01-10T15:27:15.715Z,96417.88
2019-01-10T15:29:42.788Z,96426.48
2019-01-10T15:32:09.860Z,96423.01
2019-01-10T15:34:36.924Z,96425.83
2019-01-10T15:37:05.065Z,96429.47
2019-01-10T15:39:32.665Z,96430.46
2019-01-10T15:42:00.797Z,96432.28
2019-01-10T15:44:39.910Z,96435.09
2019-01-10T15:47:07.810Z,96431.47
2019-01-10T15:49:35.507Z,96435.61
2019-01-10T15:52:02.657Z,96435.33
2019-01-10T15:54:30.474Z,96443.44
2019-01-10T15:57:00.785Z,96441.12
2019-01-10T15:59:34.080Z,96446.23
2019-01-10T16:02:01.780Z,96446.02
2019-01-10T16:04:28.972Z,96448.86
2019-01-10T16:06:56.886Z,96446.45
2019-01-10T16:09:24.597Z,96447.00
2019-01-10T16:11:51.704Z,96454.63
2019-01-10T16:14:19.847Z,96450.38
2019-01-10T16:16:47.268Z,96468.78
2019-01-10T16:19:15.494Z,96462.19
2019-01-10T16:21:42.793Z,96465.84
2019-01-10T16:24:09.988Z,96470.65
2019-01-10T16:26:37.097Z,96475.48
2019-01-10T16:29:04.317Z,96485.08
2019-01-10T16:31:31.386Z,96482.78
2019-01-10T16:33:58.542Z,96490.88
2019-01-10T16:36:25.704Z,96493.52
2019-01-10T16:38:52.859Z,96501.45
2019-01-10T16:41:20.002Z,96494.36
2019-01-10T16:43:47.109Z,96499.98
2019-01-10T16:46:14.236Z,96500.48
2019-01-10T16:48:58.233Z,96507.59
2019-01-10T16:51:25.596Z,96508.58
2019-01-10T16:53:52.752Z,96511.89
2019-01-10T16:56:20.738Z,96510.61
2019-01-10T16:58:51.046Z,96509.29
2019-01-10T17:01:18.284Z,96513.58
2019-01-10T17:03:47.128Z,96518.71
2019-01-10T17:06:36.151Z,96518.05
2019-01-10T17:09:25.780Z,96515.91
2019-01-10T17:11:53.004Z,96524.50
2019-01-10T17:14:40.168Z,96522.84
2019-01-10T17:17:07.428Z,96526.15
2019-01-10T17:19:35.631Z,96528.13
2019-01-10T17:22:02.906Z,96526.48
2019-01-10T17:24:30.568Z,96528.30
2019-01-10T17:26:59.699Z,96535.41
2019-01-10T17:29:46.567Z,96535.56
2019-01-10T17:32:13.758Z,96538.88
2019-01-10T17:34:40.885Z,96538.24
2019-01-10T17:37:07.969Z,96544.03
2019-01-10T17:39:35.933Z,96543.33
2019-01-10T17:42:05.899Z,96551.62
2019-01-10T17:44:33.699Z,96552.45
2019-01-10T17:47:00.894Z,96555.76
2019-01-10T17:49:28.906Z,96559.52
2019-01-10T17:51:56.415Z,96559.69
2019-01-10T17:54:23.532Z,96562.98
2019-01-10T17:56:50.823Z,96561.17
2019-01-10T17:59:18.806Z,96561.00
2019-01-10T18:01:47.232Z,96565.80
2019-01-10T18:04:15.373Z,96566.49
2019-01-10T18:06:45.336Z,96579.88
2019-01-10T18:09:12.654Z,96571.78
2019-01-10T18:11:40.642Z,96578.05
2019-01-10T18:14:29.607Z,96574.94
2019-01-10T18:16:57.978Z,96573.45
2019-01-10T18:19:25.769Z,96582.37
2019-01-10T18:21:53.337Z,96579.72
2019-01-10T18:24:20.835Z,96580.05
2019-01-10T18:26:51.138Z,96586.81
2019-01-10T18:29:20.203Z,96583.38
2019-01-10T18:31:50.335Z,96587.17
2019-01-10T18:34:18.527Z,96596.08
2019-01-10T18:36:46.060Z,96592.61
2019-01-10T18:39:13.865Z,96602.18
2019-01-10T18:41:41.581Z,96603.01
2019-01-10T18:44:14.703Z,96606.48
2019-01-10T18:46:43.563Z,96606.80
2019-01-10T18:49:11.619Z,96617.36
2019-01-10T18:51:39.034Z,96616.53
2019-01-10T18:54:06.819Z,96611.91
2019-01-10T18:56:36.801Z,96608.27
2019-01-10T18:59:05.285Z,96608.11
2019-01-10T19:01:34.620Z,96616.20
2019-01-10T19:06:48.576Z,96615.72
2019-01-10T19:09:38.228Z,96619.52
2019-01-10T19:12:29.144Z,96628.58
2019-01-10T19:15:20.714Z,96624.78
2019-01-10T19:17:51.544Z,96630.20
2019-01-10T19:23:21.474Z,96630.86
2019-01-10T19:25:49.258Z,96640.26
2019-01-10T19:28:17.863Z,96637.78
2019-01-10T19:30:46.453Z,96634.17
2019-01-10T19:33:14.625Z,96645.06
2019-01-10T19:35:42.925Z,96656.77
2019-01-10T19:38:31.853Z,96656.44
2019-01-10T19:41:00.874Z,96658.24
2019-01-10T19:46:18.540Z,96664.14
2019-01-10T19:48:47.124Z,96664.14
2019-01-10T19:54:21.425Z,96673.55
2019-01-10T19:56:50.128Z,96676.34
2019-01-10T19:59:18.834Z,96676.16
2019-01-10T20:02:09.150Z,96676.16
2019-01-10T20:04:55.155Z,96676.14
2019-01-10T20:07:23.992Z,96676.14
2019-01-10T20:09:53.445Z,96693.78
2019-01-10T20:12:22.304Z,96693.78
2019-01-10T20:14:54.400Z,96687.17
2019-01-10T20:17:28.077Z,96696.09
2019-01-10T20:19:57.781Z,96696.73
2019-01-10T20:22:26.691Z,96688.80
2019-01-10T20:24:55.321Z,96692.26
2019-01-10T20:27:27.333Z,96688.16
2019-01-10T20:29:56.289Z,96688.80
2019-01-10T20:32:24.920Z,96697.70
2019-01-10T20:34:53.745Z,96689.94
2019-01-10T20:37:42.661Z,96694.39
2019-01-10T20:46:02.370Z,96707.19
2019-01-10T20:48:33.401Z,96716.42
2019-01-10T20:51:21.326Z,96712.77
2019-01-10T20:53:49.557Z,96712.77
2019-01-10T20:56:37.261Z,96709.95
2019-01-10T21:02:05.096Z,96717.19
2019-01-10T21:04:33.737Z,96728.53
2019-01-10T21:07:02.444Z,96723.27
2019-01-10T21:09:30.331Z,96727.86
2019-01-10T21:11:59.010Z,96727.86
2019-01-10T21:14:27.312Z,96727.86
2019-01-10T21:16:56.094Z,96730.00
2019-01-10T21:19:24.458Z,96732.80
2019-01-10T21:21:53.614Z,96730.16
2019-01-10T21:24:21.431Z,96737.09
2019-01-10T21:26:48.966Z,96743.19
2019-01-10T21:29:23.645Z,96742.70
2019-01-10T21:31:51.664Z,96742.70
2019-01-10T21:34:19.873Z,96745.03
2019-01-10T21:36:48.037Z,96740.59
2019-01-10T21:39:19.287Z,96741.91
2019-01-10T21:41:47.014Z,96737.95
2019-01-10T21:44:15.167Z,96747.67
2019-01-10T21:46:43.058Z,96744.88
2019-01-10T21:49:11.262Z,96747.36
2019-01-10T21:51:38.556Z,96751.97
2019-01-10T21:54:08.415Z,96749.97
2019-01-10T21:56:35.813Z,96752.91
2019-01-10T21:59:02.979Z,96757.84
2019-01-10T22:01:30.148Z,96749.94
2019-01-10T22:03:57.668Z,96745.48
2019-01-10T22:06:25.086Z,96760.14
2019-01-10T22:08:52.207Z,96760.30
2019-01-10T22:11:19.605Z,96759.31
2019-01-10T22:13:46.739Z,96761.42
2019-01-10T22:16:13.859Z,96758.41
2019-01-10T22:18:41.592Z,96764.66
2019-01-10T22:21:09.086Z,96760.67
2019-01-10T22:23:36.195Z,96767.75
2019-01-10T22:26:03.277Z,96767.27
2019-01-10T22:28:30.369Z,96771.89
2019-01-10T22:30:57.466Z,96774.83
2019-01-10T22:33:24.565Z,96771.21
2019-01-10T22:35:51.779Z,96771.85
2019-01-10T22:38:18.871Z,96769.70
2019-01-10T22:40:45.965Z,96772.19
2019-01-10T22:43:13.048Z,96773.51
2019-01-10T22:45:40.163Z,96776.78
2019-01-10T22:48:07.251Z,96779.57
2019-01-10T22:50:34.313Z,96778.25
2019-01-10T22:53:01.362Z,96776.11
2019-01-10T22:55:35.258Z,96781.72
2019-01-10T22:58:02.747Z,96779.87
2019-01-10T23:01:32.659Z,96777.37
2019-01-10T23:03:59.942Z,96777.37
2019-01-10T23:06:36.556Z,96780.16
2019-01-10T23:09:07.336Z,96776.02
2019-01-10T23:11:34.355Z,96772.75
2019-01-10T23:14:02.341Z,96779.98
2019-01-10T23:16:30.142Z,96776.66
2019-01-10T23:18:57.185Z,96777.33
2019-01-10T23:21:24.260Z,96774.52
2019-01-10T23:24:16.685Z,96776.66
2019-01-10T23:26:53.623Z,96783.92
2019-01-10T23:29:21.023Z,96780.61
2019-01-10T23:31:48.527Z,96780.11
2019-01-10T23:34:15.596Z,96785.73
2019-01-10T23:36:48.811Z,96778.95
2019-01-10T23:39:19.846Z,96783.53
2019-01-10T23:41:47.447Z,96785.19
2019-01-10T23:44:14.473Z,96780.90
2019-01-10T23:46:41.639Z,96783.39
2019-01-10T23:49:08.670Z,96785.19
2019-01-10T23:51:35.816Z,96783.53
2019-01-10T23:54:02.960Z,96785.15
2019-01-10T23:56:30.007Z,96793.05
2019-01-10T23:58:57.032Z,96786.47
